sensor_id;sensor_type;location;lat;lon;timestamp;pressure;altitude;pressure_sealevel;temperature;humidity
48216;BME280;34005;48.844;10.098;2023-12-20T00:01:30;96669.53;;;6.51;73.63
48216;BME280;34005;48.844;10.098;2023-12-20T00:03:57;96674.72;;;6.51;73.76
48216;BME280;34005;48.844;10.098;2023-12-20T00:06:27;96665.97;;;6.52;73.75
48216;BME280;34005;48.844;10.098;2023-12-20T00:08:54;96659.81;;;6.53;73.44
48216;BME280;34005;48.844;10.098;2023-12-20T00:11:22;96653.69;;;6.54;74.08
48216;BME280;34005;48.844;10.098;2023-12-20T00:13:49;96647.53;;;6.55;73.20
48216;BME280;34005;48.844;10.098;2023-12-20T00:16:17;96639.75;;;6.55;74.14
48216;BME280;34005;48.844;10.098;2023-12-20T00:18:45;96639.75;;;6.55;74.12
48216;BME280;34005;48.844;10.098;2023-12-20T00:21:13;96633.75;;;6.55;74.31
48216;BME280;34005;48.844;10.098;2023-12-20T00:23:42;96625.84;;;6.56;74.36
48216;BME280;34005;48.844;10.098;2023-12-20T00:26:09;96633.59;;;6.56;74.11
48216;BME280;34005;48.844;10.098;2023-12-20T00:28:37;96636.03;;;6.58;73.86
48216;BME280;34005;48.844;10.098;2023-12-20T00:31:05;96630.69;;;6.59;74.53
48216;BME280;34005;48.844;10.098;2023-12-20T00:33:32;96615.16;;;6.59;74.59
48216;BME280;34005;48.844;10.098;2023-12-20T00:36:00;96608.16;;;6.60;74.58
48216;BME280;34005;48.844;10.098;2023-12-20T00:38:28;96606.41;;;6.60;74.54
48216;BME280;34005;48.844;10.098;2023-12-20T00:40:57;96611.59;;;6.60;74.84
48216;BME280;34005;48.844;10.098;2023-12-20T00:43:24;96608.81;;;6.62;74.59
48216;BME280;34005;48.844;10.098;2023-12-20T00:45:53;96607.06;;;6.63;75.33
48216;BME280;34005;48.844;10.098;2023-12-20T00:48:21;96614.84;;;6.63;75.61
48216;BME280;34005;48.844;10.098;2023-12-20T00:50:49;96606.09;;;6.64;75.79
48216;BME280;34005;48.844;10.098;2023-12-20T00:53:17;96613.72;;;6.65;76.07
48216;BME280;34005;48.844;10.098;2023-12-20T00:55:45;96622.31;;;6.66;75.68
48216;BME280;34005;48.844;10.098;2023-12-20T00:58:14;96609.34;;;6.66;75.27
48216;BME280;34005;48.844;10.098;2023-12-20T01:00:42;96610.94;;;6.67;76.04
48216;BME280;34005;48.844;10.098;2023-12-20T01:03:10;96598.66;;;6.69;76.63
48216;BME280;34005;48.844;10.098;2023-12-20T01:05:38;96596.88;;;6.69;76.47
48216;BME280;34005;48.844;10.098;2023-12-20T01:08:06;96595.09;;;6.70;76.75
48216;BME280;34005;48.844;10.098;2023-12-20T01:10:33;96591.53;;;6.71;77.58
48216;BME280;34005;48.844;10.098;2023-12-20T01:13:01;96595.91;;;6.70;76.90
48216;BME280;34005;48.844;10.098;2023-12-20T01:15:30;96601.09;;;6.70;77.62
48216;BME280;34005;48.844;10.098;2023-12-20T01:17:57;96587.00;;;6.73;77.76
48216;BME280;34005;48.844;10.098;2023-12-20T01:20:26;96587.19;;;6.71;77.72
48216;BME280;34005;48.844;10.098;2023-12-20T01:22:53;96601.91;;;6.71;77.76
48216;BME280;34005;48.844;10.098;2023-12-20T01:25:21;96601.09;;;6.70;77.42
48216;BME280;34005;48.844;10.098;2023-12-20T01:27:49;96607.91;;;6.71;78.23
48216;BME280;34005;48.844;10.098;2023-12-20T01:30:16;96611.47;;;6.70;78.00
48216;BME280;34005;48.844;10.098;2023-12-20T01:32:45;96611.47;;;6.70;77.98
48216;BME280;34005;48.844;10.098;2023-12-20T01:35:13;96609.66;;;6.71;78.42
48216;BME280;34005;48.844;10.098;2023-12-20T01:37:41;96612.13;;;6.72;78.14
48216;BME280;34005;48.844;10.098;2023-12-20T01:40:10;96615.84;;;6.70;78.14
48216;BME280;34005;48.844;10.098;2023-12-20T01:42:37;96606.28;;;6.70;77.95
48216;BME280;34005;48.844;10.098;2023-12-20T01:45:06;96605.31;;;6.71;78.68
48216;BME280;34005;48.844;10.098;2023-12-20T01:47:34;96608.72;;;6.72;78.94
48216;BME280;34005;48.844;10.098;2023-12-20T01:50:04;96610.31;;;6.73;79.97
48216;BME280;34005;48.844;10.098;2023-12-20T01:52:34;96623.94;;;6.75;79.99
48216;BME280;34005;48.844;10.098;2023-12-20T01:55:02;96629.13;;;6.75;80.21
48216;BME280;34005;48.844;10.098;2023-12-20T01:57:37;96621.34;;;6.75;80.22
48216;BME280;34005;48.844;10.098;2023-12-20T02:00:06;96631.38;;;6.70;79.25
48216;BME280;34005;48.844;10.098;2023-12-20T02:02:37;96631.69;;;6.67;79.83
48216;BME280;34005;48.844;10.098;2023-12-20T02:05:08;96617.78;;;6.68;80.46
48216;BME280;34005;48.844;10.098;2023-12-20T02:07:36;96626.34;;;6.68;80.59
48216;BME280;34005;48.844;10.098;2023-12-20T02:10:04;96622.97;;;6.68;80.83
48216;BME280;34005;48.844;10.098;2023-12-20T02:12:32;96627.16;;;6.69;80.87
48216;BME280;34005;48.844;10.098;2023-12-20T02:14:59;96627.16;;;6.69;80.38
48216;BME280;34005;48.844;10.098;2023-12-20T02:17:27;96617.78;;;6.68;80.77
48216;BME280;34005;48.844;10.098;2023-12-20T02:19:55;96622.97;;;6.68;80.25
48216;BME280;34005;48.844;10.098;2023-12-20T02:22:24;96614.53;;;6.66;80.21
48216;BME280;34005;48.844;10.098;2023-12-20T02:24:52;96611.13;;;6.65;80.64
48216;BME280;34005;48.844;10.098;2023-12-20T02:27:19;96615.47;;;6.65;80.67
48216;BME280;34005;48.844;10.098;2023-12-20T02:29:48;96609.00;;;6.60;80.82
48216;BME280;34005;48.844;10.098;2023-12-20T02:32:17;96609.66;;;6.63;80.46
48216;BME280;34005;48.844;10.098;2023-12-20T02:34:46;96605.56;;;6.60;80.82
48216;BME280;34005;48.844;10.098;2023-12-20T02:37:14;96598.63;;;6.60;81.22
48216;BME280;34005;48.844;10.098;2023-12-20T02:39:44;96598.31;;;6.64;81.83
48216;BME280;34005;48.844;10.098;2023-12-20T02:42:11;96607.69;;;6.65;81.44
48216;BME280;34005;48.844;10.098;2023-12-20T02:44:39;96603.50;;;6.64;81.28
48216;BME280;34005;48.844;10.098;2023-12-20T02:47:06;96605.28;;;6.63;80.89
48216;BME280;34005;48.844;10.098;2023-12-20T02:49:34;96600.41;;;6.60;81.06
48216;BME280;34005;48.844;10.098;2023-12-20T02:52:02;96609.16;;;6.59;80.92
48216;BME280;34005;48.844;10.098;2023-12-20T02:54:30;96607.50;;;6.58;81.20
48216;BME280;34005;48.844;10.098;2023-12-20T02:56:59;96609.31;;;6.57;81.44
48216;BME280;34005;48.844;10.098;2023-12-20T02:59:26;96605.09;;;6.56;81.11
48216;BME280;34005;48.844;10.098;2023-12-20T03:01:54;96613.16;;;6.53;80.97
48216;BME280;34005;48.844;10.098;2023-12-20T03:04:21;96608.16;;;6.52;81.24
48216;BME280;34005;48.844;10.098;2023-12-20T03:06:49;96600.53;;;6.50;81.29
48216;BME280;34005;48.844;10.098;2023-12-20T03:09:17;96598.91;;;6.49;81.83
48216;BME280;34005;48.844;10.098;2023-12-20T03:11:45;96601.34;;;6.51;82.09
48216;BME280;34005;48.844;10.098;2023-12-20T03:14:14;96598.09;;;6.49;82.26
48216;BME280;34005;48.844;10.098;2023-12-20T03:16:41;96598.91;;;6.49;82.52
48216;BME280;34005;48.844;10.098;2023-12-20T03:19:09;96606.03;;;6.47;82.25
48216;BME280;34005;48.844;10.098;2023-12-20T03:21:37;96609.44;;;6.48;82.70
48216;BME280;34005;48.844;10.098;2023-12-20T03:24:05;96601.66;;;6.48;82.98
48216;BME280;34005;48.844;10.098;2023-12-20T03:26:32;96602.47;;;6.48;83.04
48216;BME280;34005;48.844;10.098;2023-12-20T03:29:00;96613.63;;;6.49;82.90
48216;BME280;34005;48.844;10.098;2023-12-20T03:31:29;96607.66;;;6.48;82.92
48216;BME280;34005;48.844;10.098;2023-12-20T03:33:56;96607.78;;;6.47;82.94
48216;BME280;34005;48.844;10.098;2023-12-20T03:36:24;96613.16;;;6.45;82.80
48216;BME280;34005;48.844;10.098;2023-12-20T03:38:52;96609.91;;;6.43;82.74
48216;BME280;34005;48.844;10.098;2023-12-20T03:41:19;96613.31;;;6.44;82.89
48216;BME280;34005;48.844;10.098;2023-12-20T03:43:47;96613.44;;;6.42;82.65
48216;BME280;34005;48.844;10.098;2023-12-20T03:46:14;96613.78;;;6.39;82.77
48216;BME280;34005;48.844;10.098;2023-12-20T03:48:44;96615.69;;;6.37;82.73
48216;BME280;34005;48.844;10.098;2023-12-20T03:51:11;96620.38;;;6.33;82.51
48216;BME280;34005;48.844;10.098;2023-12-20T03:53:39;96621.50;;;6.31;82.65
48216;BME280;34005;48.844;10.098;2023-12-20T03:56:07;96615.66;;;6.29;82.25
48216;BME280;34005;48.844;10.098;2023-12-20T03:58:33;96620.19;;;6.27;81.99
48216;BME280;34005;48.844;10.098;2023-12-20T04:01:01;96612.72;;;6.24;81.89
48216;BME280;34005;48.844;10.098;2023-12-20T04:03:29;96615.31;;;6.24;82.46
48216;BME280;34005;48.844;10.098;2023-12-20T04:05:58;96619.69;;;6.23;81.86
48216;BME280;34005;48.844;10.098;2023-12-20T04:08:26;96625.69;;;6.24;81.89
48216;BME280;34005;48.844;10.098;2023-12-20T04:10:53;96619.19;;;6.19;81.87
48216;BME280;34005;48.844;10.098;2023-12-20T04:13:21;96627.75;;;6.20;81.48
48216;BME280;34005;48.844;10.098;2023-12-20T04:15:49;96628.72;;;6.19;81.51
48216;BME280;34005;48.844;10.098;2023-12-20T04:18:18;96633.25;;;6.17;81.44
48216;BME280;34005;48.844;10.098;2023-12-20T04:20:46;96638.56;;;6.15;81.85
48216;BME280;34005;48.844;10.098;2023-12-20T04:23:15;96642.16;;;6.14;82.20
48216;BME280;34005;48.844;10.098;2023-12-20T04:25:42;96640.50;;;6.13;81.93
48216;BME280;34005;48.844;10.098;2023-12-20T04:28:10;96652.50;;;6.14;82.12
48216;BME280;34005;48.844;10.098;2023-12-20T04:30:37;96642.94;;;6.15;82.32
48216;BME280;34005;48.844;10.098;2023-12-20T04:33:05;96649.91;;;6.14;81.71
48216;BME280;34005;48.844;10.098;2023-12-20T04:35:33;96644.72;;;6.14;81.59
48216;BME280;34005;48.844;10.098;2023-12-20T04:38:00;96652.50;;;6.14;81.84
48216;BME280;34005;48.844;10.098;2023-12-20T04:40:29;96656.03;;;6.13;81.71
48216;BME280;34005;48.844;10.098;2023-12-20T04:42:57;96653.59;;;6.12;81.37
48216;BME280;34005;48.844;10.098;2023-12-20T04:45:24;96641.47;;;6.12;81.16
48216;BME280;34005;48.844;10.098;2023-12-20T04:47:52;96644.34;;;6.09;80.94
48216;BME280;34005;48.844;10.098;2023-12-20T04:50:19;96648.72;;;6.09;81.18
48216;BME280;34005;48.844;10.098;2023-12-20T04:52:48;96641.63;;;6.11;81.63
48216;BME280;34005;48.844;10.098;2023-12-20T04:55:15;96649.53;;;6.09;81.41
48216;BME280;34005;48.844;10.098;2023-12-20T04:57:44;96660.22;;;6.06;80.71
48216;BME280;34005;48.844;10.098;2023-12-20T05:00:13;96667.97;;;6.06;81.19
48216;BME280;34005;48.844;10.098;2023-12-20T05:02:41;96669.78;;;6.06;80.81
48216;BME280;34005;48.844;10.098;2023-12-20T05:05:09;96669.25;;;6.02;80.47
48216;BME280;34005;48.844;10.098;2023-12-20T05:07:37;96677.31;;;5.99;80.41
48216;BME280;34005;48.844;10.098;2023-12-20T05:10:06;96685.25;;;5.97;80.88
48216;BME280;34005;48.844;10.098;2023-12-20T05:12:34;96671.47;;;5.97;81.42
48216;BME280;34005;48.844;10.098;2023-12-20T05:15:05;96688.94;;;5.95;81.22
48216;BME280;34005;48.844;10.098;2023-12-20T05:17:33;96683.78;;;5.95;81.10
48216;BME280;34005;48.844;10.098;2023-12-20T05:20:01;96691.38;;;5.96;81.87
48216;BME280;34005;48.844;10.098;2023-12-20T05:22:30;96703.38;;;5.97;81.92
48216;BME280;34005;48.844;10.098;2023-12-20T05:24:57;96681.19;;;5.95;81.56
48216;BME280;34005;48.844;10.098;2023-12-20T05:27:25;96680.34;;;5.94;82.03
48216;BME280;34005;48.844;10.098;2023-12-20T05:29:52;96683.34;;;5.90;81.71
48216;BME280;34005;48.844;10.098;2023-12-20T05:32:25;96689.66;;;5.87;82.04
48216;BME280;34005;48.844;10.098;2023-12-20T05:34:53;96686.25;;;5.87;82.42
48216;BME280;34005;48.844;10.098;2023-12-20T05:37:20;96697.41;;;5.87;81.89
48216;BME280;34005;48.844;10.098;2023-12-20T05:39:48;96709.56;;;5.87;81.88
48216;BME280;34005;48.844;10.098;2023-12-20T05:42:16;96702.72;;;5.86;81.56
48216;BME280;34005;48.844;10.098;2023-12-20T05:44:43;96704.66;;;5.84;81.32
48216;BME280;34005;48.844;10.098;2023-12-20T05:47:10;96716.50;;;5.86;82.18
48216;BME280;34005;48.844;10.098;2023-12-20T05:49:39;96713.63;;;5.89;83.10
48216;BME280;34005;48.844;10.098;2023-12-20T05:52:06;96720.44;;;5.90;82.39
48216;BME280;34005;48.844;10.098;2023-12-20T05:54:34;96718.66;;;5.91;81.80
48216;BME280;34005;48.844;10.098;2023-12-20T05:57:02;96720.25;;;5.92;81.79
48216;BME280;34005;48.844;10.098;2023-12-20T05:59:29;96724.34;;;5.94;82.56
48216;BME280;34005;48.844;10.098;2023-12-20T06:01:57;96720.69;;;5.97;83.51
48216;BME280;34005;48.844;10.098;2023-12-20T06:04:24;96728.00;;;6.02;83.56
48216;BME280;34005;48.844;10.098;2023-12-20T06:06:53;96729.75;;;6.01;83.71
48216;BME280;34005;48.844;10.098;2023-12-20T06:09:21;96742.88;;;6.00;83.19
48216;BME280;34005;48.844;10.098;2023-12-20T06:11:49;96742.03;;;5.99;82.38
48216;BME280;34005;48.844;10.098;2023-12-20T06:14:17;96736.84;;;5.99;82.81
48216;BME280;34005;48.844;10.098;2023-12-20T06:16:45;96740.09;;;6.01;83.30
48216;BME280;34005;48.844;10.098;2023-12-20T06:19:13;96750.47;;;6.01;83.97
48216;BME280;34005;48.844;10.098;2023-12-20T06:21:40;96738.34;;;6.02;83.63
48216;BME280;34005;48.844;10.098;2023-12-20T06:24:12;96750.47;;;6.01;83.62
48216;BME280;34005;48.844;10.098;2023-12-20T06:26:39;96739.31;;;6.01;83.69
48216;BME280;34005;48.844;10.098;2023-12-20T06:29:07;96748.84;;;6.00;83.66
48216;BME280;34005;48.844;10.098;2023-12-20T06:31:34;96745.28;;;6.01;83.35
48216;BME280;34005;48.844;10.098;2023-12-20T06:34:02;96743.53;;;6.02;83.00
48216;BME280;34005;48.844;10.098;2023-12-20T06:36:30;96737.38;;;6.03;83.54
48216;BME280;34005;48.844;10.098;2023-12-20T06:38:57;96739.81;;;6.04;84.10
48216;BME280;34005;48.844;10.098;2023-12-20T06:41:27;96747.47;;;6.06;83.82
48216;BME280;34005;48.844;10.098;2023-12-20T06:43:55;96749.22;;;6.05;83.87
48216;BME280;34005;48.844;10.098;2023-12-20T06:46:23;96752.63;;;6.06;84.19
48216;BME280;34005;48.844;10.098;2023-12-20T06:48:50;96751.81;;;6.05;83.70
48216;BME280;34005;48.844;10.098;2023-12-20T06:51:18;96757.81;;;6.06;83.98
48216;BME280;34005;48.844;10.098;2023-12-20T06:53:46;96763.00;;;6.06;83.90
48216;BME280;34005;48.844;10.098;2023-12-20T06:56:14;96770.59;;;6.07;84.74
48216;BME280;34005;48.844;10.098;2023-12-20T06:58:46;96765.28;;;6.09;84.77
48216;BME280;34005;48.844;10.098;2023-12-20T07:01:15;96765.13;;;6.10;84.66
48216;BME280;34005;48.844;10.098;2023-12-20T07:03:43;96761.56;;;6.11;84.56
48216;BME280;34005;48.844;10.098;2023-12-20T07:06:10;96766.75;;;6.11;84.59
48216;BME280;34005;48.844;10.098;2023-12-20T07:08:39;96773.72;;;6.11;84.14
48216;BME280;34005;48.844;10.098;2023-12-20T07:11:06;96766.88;;;6.10;84.33
48216;BME280;34005;48.844;10.098;2023-12-20T07:13:34;96777.09;;;6.11;84.35
48216;BME280;34005;48.844;10.098;2023-12-20T07:16:03;96788.13;;;6.13;83.98
48216;BME280;34005;48.844;10.098;2023-12-20T07:18:31;96788.28;;;6.12;83.79
48216;BME280;34005;48.844;10.098;2023-12-20T07:20:59;96793.44;;;6.12;83.90
48216;BME280;34005;48.844;10.098;2023-12-20T07:23:26;96792.78;;;6.10;83.89
48216;BME280;34005;48.844;10.098;2023-12-20T07:25:54;96792.94;;;6.08;84.09
48216;BME280;34005;48.844;10.098;2023-12-20T07:28:21;96803.59;;;6.05;83.89
48216;BME280;34005;48.844;10.098;2023-12-20T07:30:49;96799.53;;;6.03;84.25
48216;BME280;34005;48.844;10.098;2023-12-20T07:33:18;96800.66;;;6.00;84.77
48216;BME280;34005;48.844;10.098;2023-12-20T07:35:46;96801.44;;;6.01;85.10
48216;BME280;34005;48.844;10.098;2023-12-20T07:38:14;96805.50;;;6.03;85.04
48216;BME280;34005;48.844;10.098;2023-12-20T07:40:41;96813.81;;;6.07;85.00
48216;BME280;34005;48.844;10.098;2023-12-20T07:43:09;96812.03;;;6.07;85.23
48216;BME280;34005;48.844;10.098;2023-12-20T07:45:36;96816.25;;;6.08;85.07
48216;BME280;34005;48.844;10.098;2023-12-20T07:48:06;96817.22;;;6.07;85.03
48216;BME280;34005;48.844;10.098;2023-12-20T07:50:35;96815.59;;;6.06;85.09
48216;BME280;34005;48.844;10.098;2023-12-20T07:53:03;96810.25;;;6.08;85.26
48216;BME280;34005;48.844;10.098;2023-12-20T07:55:31;96819.53;;;6.10;85.54
48216;BME280;34005;48.844;10.098;2023-12-20T07:57:58;96820.47;;;6.09;84.87
48216;BME280;34005;48.844;10.098;2023-12-20T08:00:26;96820.78;;;6.06;84.61
48216;BME280;34005;48.844;10.098;2023-12-20T08:02:54;96823.38;;;6.06;84.98
48216;BME280;34005;48.844;10.098;2023-12-20T08:05:21;96828.69;;;6.05;85.13
48216;BME280;34005;48.844;10.098;2023-12-20T08:07:51;96827.88;;;6.04;85.06
48216;BME280;34005;48.844;10.098;2023-12-20T08:10:18;96823.63;;;6.03;nan
48216;BME280;34005;48.844;10.098;2023-12-20T08:12:46;96825.41;;;6.03;84.86
48216;BME280;34005;48.844;10.098;2023-12-20T08:15:14;96829.78;;;6.02;85.02
48216;BME280;34005;48.844;10.098;2023-12-20T08:17:41;96834.00;;;6.03;84.96
48216;BME280;34005;48.844;10.098;2023-12-20T08:20:10;96834.66;;;6.05;84.96
48216;BME280;34005;48.844;10.098;2023-12-20T08:22:45;96832.75;;;6.07;84.82
48216;BME280;34005;48.844;10.098;2023-12-20T08:25:14;96832.59;;;6.09;85.53
48216;BME280;34005;48.844;10.098;2023-12-20T08:27:42;96828.91;;;6.11;85.74
48216;BME280;34005;48.844;10.098;2023-12-20T08:30:11;96830.53;;;6.12;85.12
48216;BME280;34005;48.844;10.098;2023-12-20T08:32:39;96842.53;;;6.13;84.64
48216;BME280;34005;48.844;10.098;2023-12-20T08:35:06;96852.88;;;6.13;84.84
48216;BME280;34005;48.844;10.098;2023-12-20T08:37:35;96847.34;;;6.08;84.85
48216;BME280;34005;48.844;10.098;2023-12-20T08:40:04;96848.00;;;6.10;85.62
48216;BME280;34005;48.844;10.098;2023-12-20T08:42:33;96861.63;;;6.12;84.93
48216;BME280;34005;48.844;10.098;2023-12-20T08:45:01;96862.88;;;6.08;85.04
48216;BME280;34005;48.844;10.098;2023-12-20T08:47:30;96863.16;;;6.05;85.14
48216;BME280;34005;48.844;10.098;2023-12-20T08:49:58;96858.94;;;6.04;85.74
48216;BME280;34005;48.844;10.098;2023-12-20T08:52:27;96859.63;;;6.06;86.40
48216;BME280;34005;48.844;10.098;2023-12-20T08:54:55;96854.00;;;6.11;86.38
48216;BME280;34005;48.844;10.098;2023-12-20T08:57:23;96853.84;;;6.12;86.04
48216;BME280;34005;48.844;10.098;2023-12-20T08:59:53;96859.72;;;6.14;85.85
48216;BME280;34005;48.844;10.098;2023-12-20T09:02:20;96857.63;;;6.18;85.98
48216;BME280;34005;48.844;10.098;2023-12-20T09:04:48;96860.72;;;6.22;85.74
48216;BME280;34005;48.844;10.098;2023-12-20T09:07:22;96858.16;;;6.22;86.26
48216;BME280;34005;48.844;10.098;2023-12-20T09:09:51;96861.84;;;6.19;84.90
48216;BME280;34005;48.844;10.098;2023-12-20T09:12:19;96856.13;;;6.15;84.17
48216;BME280;34005;48.844;10.098;2023-12-20T09:14:48;96856.13;;;6.15;84.90
48216;BME280;34005;48.844;10.098;2023-12-20T09:17:17;96860.22;;;6.18;85.20
48216;BME280;34005;48.844;10.098;2023-12-20T09:19:45;96867.84;;;6.19;84.93
48216;BME280;34005;48.844;10.098;2023-12-20T09:22:13;96866.19;;;6.18;83.80
48216;BME280;34005;48.844;10.098;2023-12-20T09:24:40;96880.94;;;6.18;83.68
48216;BME280;34005;48.844;10.098;2023-12-20T09:27:08;96885.97;;;6.19;84.36
48216;BME280;34005;48.844;10.098;2023-12-20T09:29:36;96885.00;;;6.21;84.33
48216;BME280;34005;48.844;10.098;2023-12-20T09:32:04;96880.78;;;6.19;84.44
48216;BME280;34005;48.844;10.098;2023-12-20T09:34:33;96878.72;;;6.23;83.99
48216;BME280;34005;48.844;10.098;2023-12-20T09:37:00;96882.13;;;6.24;83.95
48216;BME280;34005;48.844;10.098;2023-12-20T09:39:29;96871.59;;;6.25;84.45
48216;BME280;34005;48.844;10.098;2023-12-20T09:42:01;96875.69;;;6.28;84.29
48216;BME280;34005;48.844;10.098;2023-12-20T09:44:29;96883.16;;;6.31;84.37
48216;BME280;34005;48.844;10.098;2023-12-20T09:46:57;96872.50;;;6.34;84.34
48216;BME280;34005;48.844;10.098;2023-12-20T09:49:27;96866.34;;;6.35;82.73
48216;BME280;34005;48.844;10.098;2023-12-20T09:51:56;96869.09;;;6.33;82.14
48216;BME280;34005;48.844;10.098;2023-12-20T09:54:25;96872.78;;;6.31;80.74
48216;BME280;34005;48.844;10.098;2023-12-20T09:56:54;96864.50;;;6.27;80.85
48216;BME280;34005;48.844;10.098;2023-12-20T09:59:22;96865.59;;;6.25;80.29
48216;BME280;34005;48.844;10.098;2023-12-20T10:01:50;96870.13;;;6.23;80.56
48216;BME280;34005;48.844;10.098;2023-12-20T10:04:22;96880.47;;;6.23;79.78
48216;BME280;34005;48.844;10.098;2023-12-20T10:09:24;96870.91;;;6.05;79.15
48216;BME280;34005;48.844;10.098;2023-12-20T10:11:54;96873.16;;;6.00;78.61
48216;BME280;34005;48.844;10.098;2023-12-20T10:14:24;96876.69;;;5.99;79.21
48216;BME280;34005;48.844;10.098;2023-12-20T10:16:52;96876.69;;;5.99;79.22
48216;BME280;34005;48.844;10.098;2023-12-20T10:19:22;96876.69;;;5.99;79.59
48216;BME280;34005;48.844;10.098;2023-12-20T10:21:51;96869.09;;;5.97;78.89
48216;BME280;34005;48.844;10.098;2023-12-20T10:24:19;96863.34;;;5.94;78.46
48216;BME280;34005;48.844;10.098;2023-12-20T10:27:01;96855.19;;;5.89;77.81
48216;BME280;34005;48.844;10.098;2023-12-20T10:29:34;96861.72;;;5.93;79.62
48216;BME280;34005;48.844;10.098;2023-12-20T10:32:23;96855.38;;;6.05;79.81
48216;BME280;34005;48.844;10.098;2023-12-20T10:34:52;96866.13;;;6.10;78.32
48216;BME280;34005;48.844;10.098;2023-12-20T10:37:22;96857.41;;;6.11;77.79
48216;BME280;34005;48.844;10.098;2023-12-20T10:39:52;96849.34;;;6.14;78.70
48216;BME280;34005;48.844;10.098;2023-12-20T10:42:26;96865.69;;;6.15;77.87
48216;BME280;34005;48.844;10.098;2023-12-20T10:44:56;96861.22;;;6.07;76.97
48216;BME280;34005;48.844;10.098;2023-12-20T10:47:25;96863.81;;;6.07;76.93
48216;BME280;34005;48.844;10.098;2023-12-20T10:49:54;96863.56;;;6.10;76.72
48216;BME280;34005;48.844;10.098;2023-12-20T10:52:24;96864.88;;;6.14;76.87
48216;BME280;34005;48.844;10.098;2023-12-20T10:54:54;96858.88;;;6.14;76.44
48216;BME280;34005;48.844;10.098;2023-12-20T10:57:23;96858.88;;;6.14;76.48
48216;BME280;34005;48.844;10.098;2023-12-20T10:59:56;96849.34;;;6.14;75.79
48216;BME280;34005;48.844;10.098;2023-12-20T11:02:32;96842.53;;;6.13;75.91
48216;BME280;34005;48.844;10.098;2023-12-20T11:05:08;96847.69;;;6.13;75.46
48216;BME280;34005;48.844;10.098;2023-12-20T11:07:44;96838.97;;;6.14;74.88
48216;BME280;34005;48.844;10.098;2023-12-20T11:10:19;96840.47;;;6.17;75.49
48216;BME280;34005;48.844;10.098;2023-12-20T11:12:49;96839.47;;;6.18;74.06
48216;BME280;34005;48.844;10.098;2023-12-20T11:15:21;96841.56;;;6.14;74.99
48216;BME280;34005;48.844;10.098;2023-12-20T11:17:54;96842.38;;;6.15;75.93
48216;BME280;34005;48.844;10.098;2023-12-20T11:20:24;96840.59;;;6.15;75.53
48216;BME280;34005;48.844;10.098;2023-12-20T11:23:02;96835.72;;;6.12;74.87
48216;BME280;34005;48.844;10.098;2023-12-20T11:25:46;96827.97;;;6.12;73.82
48216;BME280;34005;48.844;10.098;2023-12-20T11:28:15;96827.97;;;6.12;74.43
48216;BME280;34005;48.844;10.098;2023-12-20T11:30:51;96834.38;;;6.08;72.99
48216;BME280;34005;48.844;10.098;2023-12-20T11:33:23;96824.31;;;6.05;73.48
48216;BME280;34005;48.844;10.098;2023-12-20T11:35:56;96830.16;;;6.07;74.42
48216;BME280;34005;48.844;10.098;2023-12-20T11:38:26;96826.75;;;6.07;75.66
48216;BME280;34005;48.844;10.098;2023-12-20T11:40:56;96822.09;;;6.10;75.32
48216;BME280;34005;48.844;10.098;2023-12-20T11:43:31;96813.50;;;6.10;74.72
48216;BME280;34005;48.844;10.098;2023-12-20T11:46:05;96820.19;;;6.12;73.96
48216;BME280;34005;48.844;10.098;2023-12-20T11:48:37;96816.75;;;6.12;73.24
48216;BME280;34005;48.844;10.098;2023-12-20T11:51:10;96807.91;;;6.14;75.98
48216;BME280;34005;48.844;10.098;2023-12-20T11:53:39;96808.41;;;6.18;75.76
48216;BME280;34005;48.844;10.098;2023-12-20T11:56:10;96808.41;;;6.18;74.43
48216;BME280;34005;48.844;10.098;2023-12-20T11:58:39;96819.28;;;6.22;73.19
48216;BME280;34005;48.844;10.098;2023-12-20T12:01:10;96808.78;;;6.23;71.98
48216;BME280;34005;48.844;10.098;2023-12-20T12:03:39;96810.25;;;6.26;72.90
48216;BME280;34005;48.844;10.098;2023-12-20T12:06:08;96810.75;;;6.29;72.13
48216;BME280;34005;48.844;10.098;2023-12-20T12:08:36;96805.56;;;6.29;71.25
48216;BME280;34005;48.844;10.098;2023-12-20T12:11:05;96810.47;;;6.32;73.37
48216;BME280;34005;48.844;10.098;2023-12-20T12:13:34;96805.28;;;6.32;71.10
48216;BME280;34005;48.844;10.098;2023-12-20T12:16:02;96812.41;;;6.30;71.34
48216;BME280;34005;48.844;10.098;2023-12-20T12:18:32;96805.56;;;6.29;72.25
48216;BME280;34005;48.844;10.098;2023-12-20T12:21:01;96805.88;;;6.26;70.31
48216;BME280;34005;48.844;10.098;2023-12-20T12:23:38;96814.09;;;6.22;71.81
48216;BME280;34005;48.844;10.098;2023-12-20T12:26:06;96820.25;;;6.21;70.71
48216;BME280;34005;48.844;10.098;2023-12-20T12:28:35;96805.00;;;6.17;70.21
48216;BME280;34005;48.844;10.098;2023-12-20T12:31:04;96806.94;;;6.15;69.04
48216;BME280;34005;48.844;10.098;2023-12-20T12:33:33;96810.50;;;6.14;69.61
48216;BME280;34005;48.844;10.098;2023-12-20T12:36:02;96817.44;;;6.14;68.81
48216;BME280;34005;48.844;10.098;2023-12-20T12:38:32;96806.41;;;6.12;68.70
48216;BME280;34005;48.844;10.098;2023-12-20T12:41:01;96804.66;;;6.12;68.32
48216;BME280;34005;48.844;10.098;2023-12-20T12:43:30;96798.13;;;6.08;68.65
48216;BME280;34005;48.844;10.098;2023-12-20T12:46:02;96801.31;;;6.02;68.73
48216;BME280;34005;48.844;10.098;2023-12-20T12:48:30;96805.81;;;6.00;69.11
48216;BME280;34005;48.844;10.098;2023-12-20T12:51:01;96792.22;;;5.98;71.23
48216;BME280;34005;48.844;10.098;2023-12-20T12:53:29;96797.38;;;5.98;70.64
48216;BME280;34005;48.844;10.098;2023-12-20T12:55:57;96803.94;;;5.92;69.47
48216;BME280;34005;48.844;10.098;2023-12-20T12:58:25;96789.50;;;5.90;70.69
48216;BME280;34005;48.844;10.098;2023-12-20T13:00:53;96796.31;;;5.91;71.36
48216;BME280;34005;48.844;10.098;2023-12-20T13:03:21;96802.16;;;5.93;72.01
48216;BME280;34005;48.844;10.098;2023-12-20T13:05:49;96796.84;;;5.94;70.58
48216;BME280;34005;48.844;10.098;2023-12-20T13:08:18;96796.16;;;5.92;70.72
48216;BME280;34005;48.844;10.098;2023-12-20T13:10:46;96805.03;;;5.90;70.38